Time;durP1;ratioP1;P1;durP2;ratioP2;P2;SDS_P1;SDS_P2;PMS_P1;PMS_P2;Temp;Humidity;BMP_temperature;BMP_pressure;BME280_temperature;BME280_humidity;BME280_pressure;Samples;Min_cycle;Max_cycle;Signal;HPM_P1;HPM_P2
2022/08/17 00:00:26;;;;;;;4.30;2.90;;;23.40;85.00;;;;;;5036087;28;20026;-84
2022/08/17 00:02:58;;;;;;;4.68;2.95;;;23.40;85.10;;;;;;5034771;28;20025;-86
2022/08/17 00:05:24;;;;;;;3.88;2.88;;;23.40;85.10;;;;;;5034303;28;20026;-87
2022/08/17 00:07:49;;;;;;;4.32;2.97;;;23.50;85.10;;;;;;5033782;28;20036;-86
2022/08/17 00:10:15;;;;;;;5.00;3.03;;;23.50;85.10;;;;;;5035655;28;20036;-87
2022/08/17 00:12:42;;;;;;;4.60;3.13;;;23.50;85.00;;;;;;5035337;28;20029;-87
2022/08/17 00:15:09;;;;;;;4.95;3.15;;;23.50;84.90;;;;;;5033846;28;20026;-87
2022/08/17 00:17:35;;;;;;;4.38;3.15;;;23.50;84.90;;;;;;5035492;28;20100;-85
2022/08/17 00:20:00;;;;;;;4.88;3.47;;;23.50;85.00;;;;;;5035003;28;20061;-87
2022/08/17 00:22:26;;;;;;;4.20;2.88;;;23.50;85.00;;;;;;5035763;28;20080;-85
2022/08/17 00:24:52;;;;;;;4.25;3.10;;;23.40;85.00;;;;;;5035888;28;20026;-86
2022/08/17 00:27:18;;;;;;;4.57;3.38;;;23.40;85.10;;;;;;5035720;28;20163;-86
2022/08/17 00:29:44;;;;;;;4.38;3.20;;;23.40;85.10;;;;;;5035327;28;20044;-87
2022/08/17 00:32:11;;;;;;;3.95;2.78;;;23.40;85.20;;;;;;5038061;28;20033;-86
2022/08/17 00:34:36;;;;;;;4.78;3.20;;;23.40;85.20;;;;;;5038578;28;20021;-87
2022/08/17 00:37:02;;;;;;;4.18;2.97;;;23.40;85.20;;;;;;5042085;28;20027;-87
2022/08/17 00:39:27;;;;;;;3.95;2.90;;;23.40;85.30;;;;;;5040930;28;20369;-86
2022/08/17 00:41:53;;;;;;;4.35;2.90;;;23.40;85.20;;;;;;5042754;28;20017;-87
2022/08/17 00:44:18;;;;;;;4.10;2.80;;;23.40;85.20;;;;;;5041934;28;20040;-86
2022/08/17 00:46:46;;;;;;;3.95;2.90;;;23.40;85.20;;;;;;5040156;28;20159;-88
2022/08/17 00:49:13;;;;;;;4.82;3.20;;;23.40;85.70;;;;;;5041244;28;20021;-86
2022/08/17 00:51:46;;;;;;;3.70;2.67;;;23.40;85.20;;;;;;5039824;28;20056;-87
2022/08/17 00:54:15;;;;;;;3.88;2.80;;;23.40;85.20;;;;;;5039112;28;20160;-86
2022/08/17 00:56:46;;;;;;;4.03;2.88;;;23.40;85.10;;;;;;5040517;28;20060;-86
2022/08/17 00:59:15;;;;;;;3.90;2.70;;;23.50;85.10;;;;;;5039089;28;20057;-86
2022/08/17 01:01:42;;;;;;;3.97;2.95;;;23.50;85.00;;;;;;5038992;28;20403;-86
2022/08/17 01:04:09;;;;;;;4.28;3.20;;;23.50;85.00;;;;;;5038421;28;20028;-86
2022/08/17 01:06:35;;;;;;;5.30;3.20;;;23.40;85.00;;;;;;5038417;28;20030;-86
2022/08/17 01:09:02;;;;;;;4.32;2.83;;;23.40;85.10;;;;;;5037854;28;20036;-86
2022/08/17 01:11:29;;;;;;;4.45;3.30;;;23.40;85.10;;;;;;5037347;28;20033;-87
2022/08/17 01:13:55;;;;;;;4.53;3.10;;;23.40;85.20;;;;;;5037540;28;20032;-87
2022/08/17 01:16:25;;;;;;;4.72;3.20;;;23.40;85.30;;;;;;5037769;28;20021;-86
2022/08/17 01:18:55;;;;;;;4.68;2.90;;;23.40;85.30;;;;;;5038956;28;20021;-86
2022/08/17 01:21:42;;;;;;;4.07;3.10;;;23.40;85.40;;;;;;5039064;28;20038;-85
2022/08/17 01:24:09;;;;;;;4.38;3.08;;;23.40;85.40;;;;;;5038457;28;20034;-86
2022/08/17 01:26:35;;;;;;;4.70;3.10;;;23.40;85.40;;;;;;5037002;28;20036;-86
2022/08/17 01:29:04;;;;;;;4.05;2.92;;;23.40;85.30;;;;;;5038303;28;20073;-86
2022/08/17 01:31:36;;;;;;;4.55;3.13;;;23.40;85.30;;;;;;5037429;28;20048;-86
2022/08/17 01:34:08;;;;;;;4.47;2.95;;;23.40;85.30;;;;;;5037233;28;20464;-86
2022/08/17 01:36:35;;;;;;;4.43;3.28;;;23.40;85.30;;;;;;5036825;28;20018;-85
2022/08/17 01:39:03;;;;;;;4.28;2.90;;;23.40;85.40;;;;;;5036988;28;20026;-85
2022/08/17 01:41:29;;;;;;;4.32;3.10;;;23.30;85.20;;;;;;5036685;28;20433;-86
2022/08/17 01:44:01;;;;;;;4.68;2.88;;;23.50;85.30;;;;;;5036875;28;20036;-86
2022/08/17 01:46:31;;;;;;;4.57;3.03;;;23.40;85.10;;;;;;5035688;28;20053;-86
2022/08/17 01:48:57;;;;;;;4.10;2.90;;;23.40;85.00;;;;;;5035743;28;20492;-86
2022/08/17 01:51:26;;;;;;;4.22;3.05;;;23.40;85.10;;;;;;5036945;28;20083;-86
2022/08/17 01:53:56;;;;;;;4.78;3.35;;;23.40;85.10;;;;;;5036972;28;20079;-86
2022/08/17 01:56:23;;;;;;;3.85;2.85;;;23.40;85.20;;;;;;5035912;28;20025;-86
2022/08/17 01:58:49;;;;;;;4.68;3.03;;;23.40;85.30;;;;;;5036867;28;20400;-84
2022/08/17 02:01:17;;;;;;;4.10;3.08;;;23.40;85.40;;;;;;5035251;28;20029;-87
2022/08/17 02:03:42;;;;;;;4.97;3.35;;;23.40;85.40;;;;;;5036980;28;20033;-86
2022/08/17 02:06:08;;;;;;;4.32;3.17;;;23.40;85.40;;;;;;5035918;28;20076;-86
2022/08/17 02:08:34;;;;;;;4.13;3.00;;;23.30;85.40;;;;;;5035423;28;20093;-86
2022/08/17 02:11:02;;;;;;;4.75;3.33;;;23.30;85.40;;;;;;5035396;28;20068;-86
2022/08/17 02:13:28;;;;;;;4.43;3.10;;;23.30;85.40;;;;;;5035306;28;20392;-85
2022/08/17 02:15:58;;;;;;;4.60;3.15;;;23.30;85.40;;;;;;5036769;28;20029;-85
2022/08/17 02:18:24;;;;;;;4.60;2.88;;;23.40;85.40;;;;;;5035737;28;20029;-85
2022/08/17 02:20:51;;;;;;;4.13;2.92;;;23.30;85.40;;;;;;5035353;28;20050;-85
2022/08/17 02:23:17;;;;;;;4.28;2.97;;;23.30;85.40;;;;;;5035736;28;20093;-86
2022/08/17 02:25:46;;;;;;;4.70;3.20;;;23.40;85.40;;;;;;5041486;28;20159;-86
2022/08/17 02:28:12;;;;;;;4.30;3.00;;;23.40;85.40;;;;;;5038974;28;20075;-86
2022/08/17 02:30:38;;;;;;;4.53;2.92;;;23.40;85.30;;;;;;5039326;28;20033;-86
2022/08/17 02:33:05;;;;;;;4.57;3.10;;;23.40;85.20;;;;;;5038919;28;20021;-86
2022/08/17 02:35:30;;;;;;;4.43;3.05;;;23.40;85.10;;;;;;5032526;28;20026;-86
2022/08/17 02:37:56;;;;;;;4.65;3.25;;;23.40;85.20;;;;;;5039316;28;20109;-85
2022/08/17 02:40:23;;;;;;;5.50;3.35;;;23.40;85.30;;;;;;5039038;28;20395;-88
2022/08/17 02:42:48;;;;;;;4.55;3.15;;;23.40;85.30;;;;;;5037691;28;20029;-86
2022/08/17 02:45:19;;;;;;;4.50;3.20;;;23.40;85.40;;;;;;5037459;28;20381;-87
2022/08/17 02:47:45;;;;;;;4.57;3.17;;;23.40;85.50;;;;;;5039164;28;20029;-86
2022/08/17 02:50:13;;;;;;;5.28;3.42;;;23.40;85.60;;;;;;5038314;28;20025;-86
2022/08/17 02:52:41;;;;;;;4.40;3.00;;;23.30;85.60;;;;;;5038079;28;20076;-86
2022/08/17 02:55:11;;;;;;;5.10;3.28;;;23.30;85.50;;;;;;5036490;28;20030;-86
2022/08/17 02:57:37;;;;;;;4.63;3.30;;;23.30;85.60;;;;;;5036369;28;20033;-86
2022/08/17 03:00:10;;;;;;;4.00;2.97;;;23.30;85.60;;;;;;5036105;28;20044;-86
2022/08/17 03:02:38;;;;;;;5.50;3.33;;;23.30;85.50;;;;;;5036267;28;20111;-85
2022/08/17 03:05:05;;;;;;;4.68;3.35;;;23.30;85.50;;;;;;5035726;28;20025;-87
2022/08/17 03:07:31;;;;;;;4.60;3.20;;;23.30;85.50;;;;;;5037418;28;20100;-86
2022/08/17 03:09:56;;;;;;;4.80;3.15;;;23.30;85.50;;;;;;5037085;28;20059;-86
2022/08/17 03:12:22;;;;;;;4.60;3.03;;;23.30;85.50;;;;;;5035480;28;20453;-86
2022/08/17 03:14:48;;;;;;;4.95;3.20;;;23.30;85.40;;;;;;5037257;28;20053;-86
2022/08/17 03:17:13;;;;;;;4.50;3.13;;;23.40;85.40;;;;;;5035621;28;20484;-86
2022/08/17 03:19:39;;;;;;;4.80;3.38;;;23.40;85.30;;;;;;5036224;28;20051;-87
2022/08/17 03:22:06;;;;;;;4.32;3.15;;;23.40;85.30;;;;;;5034805;28;20488;-85
2022/08/17 03:24:31;;;;;;;4.93;3.28;;;23.40;85.30;;;;;;5036518;28;20065;-86
2022/08/17 03:26:57;;;;;;;4.45;3.25;;;23.40;85.30;;;;;;5035835;28;20026;-86
2022/08/17 03:29:22;;;;;;;4.30;3.05;;;23.30;85.30;;;;;;5034418;28;20022;-87
2022/08/17 03:31:49;;;;;;;5.00;3.40;;;23.40;85.50;;;;;;5034530;28;20076;-86
2022/08/17 03:34:15;;;;;;;4.72;3.35;;;23.30;85.50;;;;;;5035754;28;20025;-86
2022/08/17 03:36:41;;;;;;;4.80;3.40;;;23.30;85.60;;;;;;5036036;28;20101;-86
2022/08/17 03:39:07;;;;;;;4.75;3.45;;;23.30;85.60;;;;;;5034495;28;20524;-85
2022/08/17 03:41:33;;;;;;;4.70;3.17;;;23.30;85.70;;;;;;5034443;28;20485;-86
2022/08/17 03:43:58;;;;;;;4.78;3.20;;;23.30;85.70;;;;;;5037583;28;20029;-87
2022/08/17 03:57:26;;;;;;;5.07;3.20;;;23.30;85.60;;;;;;5039125;28;20539;-86
2022/08/17 03:59:53;;;;;;;4.95;3.20;;;23.30;85.60;;;;;;5038630;28;20083;-87
2022/08/17 04:02:25;;;;;;;4.78;3.28;;;23.40;85.60;;;;;;5037252;28;20029;-86
2022/08/17 04:04:52;;;;;;;4.43;3.15;;;23.40;85.40;;;;;;5037158;28;20022;-86
2022/08/17 04:07:19;;;;;;;4.25;3.20;;;23.40;85.30;;;;;;5039049;28;20057;-87
2022/08/17 04:09:45;;;;;;;4.63;3.15;;;23.40;85.40;;;;;;5037437;28;20033;-87
2022/08/17 04:12:17;;;;;;;4.82;3.67;;;23.30;85.40;;;;;;5041873;28;20404;-86
2022/08/17 04:14:43;;;;;;;4.75;3.45;;;23.30;85.40;;;;;;5040097;28;20439;-87
2022/08/17 04:17:08;;;;;;;4.90;3.60;;;23.30;85.40;;;;;;5039376;28;20022;-86
2022/08/17 04:19:34;;;;;;;5.35;3.53;;;23.30;85.50;;;;;;5038972;28;20029;-86
2022/08/17 04:22:00;;;;;;;4.38;3.22;;;23.30;85.60;;;;;;5039241;28;20025;-86
2022/08/17 04:24:26;;;;;;;4.95;3.55;;;23.30;85.60;;;;;;5038965;28;20032;-85
2022/08/17 04:26:51;;;;;;;4.57;3.38;;;23.30;85.60;;;;;;5039267;28;20510;-86
2022/08/17 04:29:17;;;;;;;4.97;3.53;;;23.30;85.70;;;;;;5039271;28;20104;-87
2022/08/17 04:31:43;;;;;;;4.57;3.28;;;23.30;85.70;;;;;;5039917;28;20480;-86
2022/08/17 04:34:09;;;;;;;5.00;3.47;;;23.30;85.70;;;;;;5038449;28;20033;-85
2022/08/17 04:36:34;;;;;;;4.85;3.30;;;23.30;86.20;;;;;;5033927;28;20025;-85
2022/08/17 04:39:00;;;;;;;4.60;3.25;;;23.30;85.70;;;;;;5038838;28;20032;-82
2022/08/17 04:44:10;;;;;;;4.40;3.13;;;23.30;85.60;;;;;;5042089;28;20550;-84
2022/08/17 04:46:36;;;;;;;5.10;3.42;;;23.30;85.50;;;;;;5041499;28;20108;-84
2022/08/17 04:49:05;;;;;;;4.45;3.22;;;23.30;85.40;;;;;;5039854;28;20373;-83
2022/08/17 04:51:45;;;;;;;10.38;3.50;;;23.40;85.40;;;;;;5037075;28;20026;-85
2022/08/17 04:54:17;;;;;;;5.07;3.60;;;23.40;85.20;;;;;;5039255;28;20033;-84
2022/08/17 04:56:43;;;;;;;5.88;3.33;;;23.30;85.20;;;;;;5040197;28;20100;-85
2022/08/17 04:59:15;;;;;;;6.22;3.90;;;23.30;85.30;;;;;;5036576;28;20162;-84
2022/08/17 05:01:44;;;;;;;6.75;4.00;;;23.30;85.30;;;;;;5036793;28;20079;-83
2022/08/17 05:04:12;;;;;;;6.13;3.95;;;23.30;85.30;;;;;;5039065;28;20024;-85
2022/08/17 05:06:38;;;;;;;7.22;3.85;;;23.30;85.40;;;;;;5037449;28;20025;-87
2022/08/17 05:09:45;;;;;;;6.47;3.97;;;23.30;85.40;;;;;;5037940;28;20022;-85
2022/08/17 05:12:34;;;;;;;7.28;3.92;;;23.20;85.30;;;;;;5037659;28;20025;-85
2022/08/17 05:15:14;;;;;;;6.85;4.00;;;23.30;85.40;;;;;;5037149;28;20638;-86
2022/08/17 05:17:55;;;;;;;7.47;3.80;;;24.20;85.90;;;;;;5037211;28;20025;-86
2022/08/17 05:20:27;;;;;;;;;;;23.30;85.40;;;;;;5035760;28;20053;-85
2022/08/17 05:23:10;;;;;;;;;;;;;;;;;;;;;
2022/08/17 05:26:10;;;;;;;5.82;3.80;;;23.40;85.40;;;;;;5028247;28;20506;-85
2022/08/17 05:28:44;;;;;;;5.75;3.60;;;23.30;85.30;;;;;;5017570;28;20052;-87
2022/08/17 05:31:10;;;;;;;7.18;3.58;;;23.40;85.40;;;;;;5017772;28;20036;-85
2022/08/17 05:34:09;;;;;;;;;;;;;;;;;;;;;
2022/08/17 05:37:43;;;;;;;5.55;3.70;;;25.20;86.20;;;;;;5003238;28;20026;-86
2022/08/17 05:40:09;;;;;;;5.72;3.63;;;23.30;85.10;;;;;;5355053;22;20742;-87
2022/08/17 05:42:35;;;;;;;6.07;4.40;;;23.30;85.00;;;;;;5019929;28;20087;-86
2022/08/17 05:45:00;;;;;;;6.40;4.38;;;23.30;85.10;;;;;;5004032;28;20022;-87
2022/08/17 05:47:27;;;;;;;5.95;3.88;;;23.30;85.20;;;;;;5003654;28;20500;-88
2022/08/17 05:49:53;;;;;;;5.72;3.85;;;23.30;85.20;;;;;;5009180;28;20025;-86
2022/08/17 05:52:22;;;;;;;7.40;4.03;;;23.30;85.30;;;;;;5022645;28;20456;-86
2022/08/17 05:55:04;;;;;;;6.57;3.88;;;23.20;85.30;;;;;;5022819;28;20103;-86
2022/08/17 05:57:53;;;;;;;5.70;3.70;;;23.30;85.40;;;;;;5040288;28;20017;-86
2022/08/17 06:00:21;;;;;;;6.57;4.13;;;23.30;85.30;;;;;;5027925;28;20033;-88
2022/08/17 06:03:03;;;;;;;5.95;3.80;;;23.30;85.30;;;;;;5021993;28;20295;-87
2022/08/17 06:05:52;;;;;;;7.65;3.88;;;23.30;85.20;;;;;;5039469;28;20056;-88
2022/08/17 06:08:42;;;;;;;6.25;4.32;;;23.30;85.70;;;;;;5021269;28;20056;-86
2022/08/17 06:11:50;;;;;;;6.35;4.30;;;23.30;85.20;;;;;;5020715;28;20018;-86
2022/08/17 06:14:57;;;;;;;6.50;4.20;;;23.30;85.10;;;;;;5037619;28;20487;-85
2022/08/17 06:17:23;;;;;;;6.82;4.25;;;23.30;85.10;;;;;;5036796;28;20024;-85
2022/08/17 06:20:00;;;;;;;6.50;3.90;;;23.40;85.00;;;;;;5018311;28;20021;-85
2022/08/17 06:22:31;;;;;;;7.50;3.90;;;23.40;84.80;;;;;;5018574;28;20036;-85
2022/08/17 06:25:03;;;;;;;7.75;4.13;;;23.40;84.60;;;;;;5018684;28;20082;-85
2022/08/17 06:27:43;;;;;;;6.45;4.13;;;23.50;84.50;;;;;;5035972;28;20035;-86
2022/08/17 06:30:12;;;;;;;5.90;4.05;;;23.50;84.40;;;;;;5036017;28;20021;-85
2022/08/17 06:32:42;;;;;;;6.47;3.92;;;23.50;84.40;;;;;;5018099;28;20384;-84
2022/08/17 06:35:11;;;;;;;6.20;4.00;;;23.50;84.30;;;;;;5018633;28;20014;-84
2022/08/17 06:37:50;;;;;;;5.95;3.88;;;23.50;84.30;;;;;;5018247;28;20627;-85
2022/08/17 06:40:45;;;;;;;6.03;4.07;;;23.50;84.30;;;;;;5017945;28;20029;-85
2022/08/17 06:43:31;;;;;;;6.78;4.25;;;23.50;84.30;;;;;;5018195;28;20028;-86
2022/08/17 06:46:11;;;;;;;6.25;3.97;;;23.50;84.30;;;;;;5018313;28;20044;-85
2022/08/17 06:48:45;;;;;;;6.43;3.92;;;23.50;84.40;;;;;;5035759;28;20036;-84
2022/08/17 06:51:31;;;;;;;6.63;4.28;;;23.50;84.40;;;;;;5017863;28;20030;-85
2022/08/17 06:54:35;;;;;;;5.93;4.10;;;23.50;84.40;;;;;;5035551;28;20017;-87
2022/08/17 06:57:25;;;;;;;6.00;4.07;;;23.60;84.40;;;;;;5023647;28;20483;-86
2022/08/17 07:00:02;;;;;;;5.30;4.00;;;23.50;84.20;;;;;;5023021;28;20026;-86
2022/08/17 07:03:11;;;;;;;5.80;4.03;;;23.60;84.20;;;;;;5022335;28;20122;-86
2022/08/17 07:05:45;;;;;;;6.40;3.95;;;23.60;83.90;;;;;;5039628;28;20528;-88
2022/08/17 07:08:23;;;;;;;5.78;3.90;;;23.70;83.70;;;;;;5021680;28;20029;-85
2022/08/17 07:10:56;;;;;;;5.85;3.88;;;23.70;83.40;;;;;;5021446;28;20499;-85
2022/08/17 07:13:37;;;;;;;5.47;3.90;;;23.80;83.30;;;;;;5020797;28;20044;-86
2022/08/17 07:16:15;;;;;;;5.60;3.80;;;23.80;83.30;;;;;;5021747;28;20515;-88
2022/08/17 07:18:42;;;;;;;5.88;3.92;;;23.80;83.30;;;;;;5020905;28;20052;-85
2022/08/17 07:21:27;;;;;;;6.07;3.90;;;23.70;83.30;;;;;;5019885;28;20025;-87
2022/08/17 07:24:12;;;;;;;6.28;4.10;;;23.80;83.50;;;;;;5020279;28;20017;-85
2022/08/17 07:26:37;;;;;;;5.38;3.80;;;23.70;83.40;;;;;;5020411;28;20017;-85
2022/08/17 07:29:04;;;;;;;6.22;3.72;;;23.70;83.60;;;;;;5020036;28;20028;-86
2022/08/17 07:31:32;;;;;;;5.93;4.20;;;23.70;83.40;;;;;;5018041;28;20033;-86
2022/08/17 07:34:05;;;;;;;5.25;3.80;;;23.70;83.40;;;;;;5017196;28;20021;-85
2022/08/17 07:36:32;;;;;;;5.75;3.70;;;23.70;83.40;;;;;;5017666;28;20018;-87
2022/08/17 07:39:00;;;;;;;6.75;4.20;;;23.70;83.60;;;;;;5017173;28;20022;-89
2022/08/17 07:41:26;;;;;;;5.93;4.20;;;23.70;83.60;;;;;;5017087;28;20171;-86
2022/08/17 07:43:51;;;;;;;5.80;4.20;;;23.70;83.60;;;;;;5016811;28;20076;-86
2022/08/17 07:49:16;;;;;;;5.47;3.78;;;23.80;83.50;;;;;;5038497;28;20121;-86
2022/08/17 07:51:42;;;;;;;5.80;4.28;;;23.80;83.20;;;;;;5041392;28;20029;-87
2022/08/17 07:54:26;;;;;;;6.03;4.00;;;23.90;83.00;;;;;;5022519;28;20024;-87
2022/08/17 07:57:02;;;;;;;7.10;4.22;;;23.90;82.80;;;;;;5021498;28;20018;-85
2022/08/17 07:59:31;;;;;;;6.05;3.97;;;24.00;82.70;;;;;;5021416;28;20061;-86
2022/08/17 08:01:57;;;;;;;6.90;4.30;;;24.00;82.70;;;;;;5021250;28;20181;-86
2022/08/17 08:04:33;;;;;;;6.10;4.13;;;24.00;82.70;;;;;;5037912;28;20116;-85
2022/08/17 08:07:01;;;;;;;5.40;3.78;;;24.00;82.80;;;;;;5020667;28;20052;-85
2022/08/17 08:09:42;;;;;;;5.57;4.15;;;23.90;82.80;;;;;;5019513;28;20686;-86
2022/08/17 08:12:28;;;;;;;5.70;4.13;;;24.00;82.90;;;;;;5036995;28;20029;-85
2022/08/17 08:14:57;;;;;;;5.85;4.10;;;24.00;83.00;;;;;;5017097;28;20448;-84
2022/08/17 08:17:29;;;;;;;6.82;4.07;;;23.90;82.90;;;;;;5016852;28;20020;-84
2022/08/17 08:19:56;;;;;;;6.32;4.82;;;23.90;83.00;;;;;;5016541;28;20041;-85
2022/08/17 08:22:37;;;;;;;6.18;4.38;;;23.80;83.10;;;;;;5017102;28;20045;-83
2022/08/17 08:25:41;;;;;;;5.70;4.18;;;23.80;83.20;;;;;;5034559;28;20104;-84
2022/08/17 08:28:19;;;;;;;5.60;4.10;;;23.80;83.40;;;;;;5017339;28;20025;-85
2022/08/17 08:30:52;;;;;;;6.32;4.38;;;23.80;84.00;;;;;;5016389;28;20031;-85
2022/08/17 08:33:32;;;;;;;5.88;4.10;;;23.80;83.50;;;;;;5017152;28;20364;-85
2022/08/17 08:36:24;;;;;;;6.07;4.47;;;23.80;83.50;;;;;;5034565;28;20155;-85
2022/08/17 08:39:02;;;;;;;5.32;3.90;;;23.80;83.50;;;;;;5016708;28;20024;-85
2022/08/17 08:41:54;;;;;;;5.78;3.92;;;23.80;83.40;;;;;;5016700;28;20064;-85
2022/08/17 08:44:38;;;;;;;5.57;4.03;;;23.90;83.30;;;;;;5036101;28;20021;-87
2022/08/17 08:47:33;;;;;;;5.85;4.07;;;23.90;83.20;;;;;;5021920;28;20484;-87
2022/08/17 08:50:01;;;;;;;5.38;3.90;;;23.80;83.20;;;;;;5002326;28;20116;-86
2022/08/17 08:52:34;;;;;;;5.43;4.00;;;23.90;83.30;;;;;;5001162;28;20041;-86
2022/08/17 08:55:10;;;;;;;5.45;3.85;;;23.80;83.30;;;;;;5019392;28;20508;-87
2022/08/17 08:57:43;;;;;;;5.35;3.97;;;23.80;83.40;;;;;;5004456;28;20033;-85
2022/08/17 09:00:14;;;;;;;5.75;3.50;;;23.80;83.50;;;;;;5021422;28;20461;-85
2022/08/17 09:03:02;;;;;;;5.40;3.88;;;23.80;83.50;;;;;;5003972;28;20060;-87
2022/08/17 09:05:55;;;;;;;5.47;3.85;;;23.80;83.40;;;;;;5003685;28;20033;-85
2022/08/17 09:08:30;;;;;;;5.25;3.78;;;23.80;83.50;;;;;;5021825;28;20539;-87
2022/08/17 09:11:25;;;;;;;5.22;3.80;;;23.90;83.50;;;;;;5003690;28;20034;-85
2022/08/17 09:14:24;;;;;;;5.28;3.97;;;23.90;83.40;;;;;;5012542;28;20501;-87
2022/08/17 09:17:12;;;;;;;5.93;4.07;;;23.90;83.40;;;;;;4976582;28;20030;-85
2022/08/17 09:19:44;;;;;;;5.32;3.78;;;24.00;83.20;;;;;;5001146;28;20022;-86
2022/08/17 09:22:29;;;;;;;6.47;4.20;;;24.00;83.10;;;;;;5018118;28;20022;-87
2022/08/17 09:25:02;;;;;;;5.80;4.05;;;24.10;82.90;;;;;;5000000;28;20029;-86
2022/08/17 09:27:45;;;;;;;5.53;3.95;;;24.10;82.60;;;;;;4999913;28;20428;-87
2022/08/17 09:30:11;;;;;;;5.53;3.85;;;24.20;82.30;;;;;;4999683;28;20444;-86
2022/08/17 09:32:48;;;;;;;5.50;3.85;;;24.30;82.10;;;;;;5017313;28;20022;-86
2022/08/17 09:35:23;;;;;;;6.00;4.10;;;24.30;82.10;;;;;;5017749;28;20515;-87
2022/08/17 09:38:01;;;;;;;5.97;3.88;;;24.30;82.00;;;;;;5000053;28;20021;-86
2022/08/17 09:40:36;;;;;;;5.60;3.95;;;24.30;82.10;;;;;;4999256;28;20036;-86
2022/08/17 09:43:23;;;;;;;5.28;3.95;;;24.30;82.20;;;;;;4999875;28;20093;-85
2022/08/17 09:45:57;;;;;;;5.30;3.85;;;24.30;82.10;;;;;;4999717;28;20366;-85
2022/08/17 09:48:29;;;;;;;5.30;3.70;;;24.30;82.20;;;;;;4999960;28;20405;-85
2022/08/17 09:51:01;;;;;;;6.07;4.05;;;24.30;82.30;;;;;;4999384;28;20026;-85
2022/08/17 09:53:27;;;;;;;5.47;4.05;;;24.20;82.90;;;;;;5016918;28;20018;-86
2022/08/17 09:56:17;;;;;;;5.57;3.70;;;24.20;82.30;;;;;;5019429;28;20025;-86
2022/08/17 09:58:55;;;;;;;6.03;4.20;;;24.20;82.40;;;;;;5006081;28;20017;-87
2022/08/17 10:01:27;;;;;;;5.57;3.65;;;24.20;82.40;;;;;;5005003;28;20022;-86
2022/08/17 10:04:20;;;;;;;5.45;3.90;;;24.20;82.50;;;;;;5005008;28;20026;-86
2022/08/17 10:07:13;;;;;;;5.53;3.97;;;24.20;82.50;;;;;;5004331;28;20030;-88
2022/08/17 10:10:00;;;;;;;5.28;3.80;;;24.20;82.50;;;;;;5020264;28;20026;-86
2022/08/17 10:12:35;;;;;;;5.40;3.88;;;24.20;82.40;;;;;;5003914;28;20121;-86
2022/08/17 10:15:21;;;;;;;5.22;3.50;;;24.20;82.50;;;;;;5002486;28;20418;-89
2022/08/17 10:18:07;;;;;;;6.00;4.20;;;24.20;82.50;;;;;;5002276;28;20018;-86
2022/08/17 10:26:11;;;;;;;5.38;4.05;;;24.10;82.50;;;;;;5001453;28;20026;-84
2022/08/17 10:26:33;;;;;;;4.60;3.50;;;24.10;82.80;;;;;;4998941;28;20033;-86
2022/08/17 10:29:19;;;;;;;4.40;3.25;;;24.10;83.00;;;;;;4981212;28;20088;-80
2022/08/17 10:31:54;;;;;;;5.63;3.80;;;24.10;83.00;;;;;;4996712;28;20022;-83
2022/08/17 10:34:53;;;;;;;6.43;3.92;;;24.00;83.00;;;;;;4997314;28;20046;-86
2022/08/17 10:37:32;;;;;;;5.45;3.78;;;24.00;83.10;;;;;;4981058;28;20019;-81
2022/08/17 10:40:17;;;;;;;5.40;3.88;;;24.00;83.20;;;;;;4996833;28;20030;-83
2022/08/17 10:42:47;;;;;;;5.30;3.58;;;24.00;83.20;;;;;;4979306;28;20050;-83
2022/08/17 10:45:32;;;;;;;4.82;3.53;;;24.00;83.20;;;;;;4997107;28;20018;-82
2022/08/17 10:48:20;;;;;;;5.38;3.80;;;24.00;83.10;;;;;;4999219;28;20161;-84
2022/08/17 10:50:53;;;;;;;5.22;3.70;;;24.10;83.00;;;;;;5007073;28;20030;-83
2022/08/17 10:53:42;;;;;;;5.35;3.45;;;24.10;82.90;;;;;;4999228;28;20014;-83
2022/08/17 10:56:10;;;;;;;5.25;3.38;;;24.10;82.80;;;;;;5000506;28;20021;-84
2022/08/17 10:58:53;;;;;;;6.13;3.70;;;24.10;83.20;;;;;;4999674;28;20025;-83
2022/08/17 11:01:28;;;;;;;4.80;3.50;;;24.10;82.60;;;;;;4999482;28;20137;-86
2022/08/17 11:03:56;;;;;;;4.72;3.42;;;24.10;82.60;;;;;;5001305;28;20034;-84
2022/08/17 11:06:48;;;;;;;5.13;3.53;;;24.10;82.70;;;;;;5019158;28;20021;-85
2022/08/17 11:09:49;;;;;;;4.70;3.38;;;24.10;82.80;;;;;;5018809;28;20025;-84
2022/08/17 11:12:36;;;;;;;5.18;3.65;;;24.00;82.90;;;;;;5036380;28;20607;-84
2022/08/17 11:15:38;;;;;;;5.20;3.70;;;24.00;83.10;;;;;;5019040;28;20033;-85
2022/08/17 11:18:30;;;;;;;5.03;3.53;;;24.00;83.20;;;;;;5019124;28;20017;-84
2022/08/17 11:21:39;;;;;;;5.38;3.83;;;24.00;83.20;;;;;;5017863;28;20506;-84
2022/08/17 11:24:13;;;;;;;4.90;3.38;;;24.00;83.40;;;;;;4938171;29;20090;-84
2022/08/17 11:26:45;;;;;;;5.68;3.67;;;23.90;83.40;;;;;;5010040;28;20025;-83
2022/08/17 11:29:22;;;;;;;8.75;3.63;;;23.90;83.40;;;;;;5017512;28;20029;-83
2022/08/17 11:31:59;;;;;;;5.90;3.88;;;23.90;83.60;;;;;;5034744;28;20032;-83
2022/08/17 11:34:26;;;;;;;9.23;3.75;;;23.90;83.50;;;;;;5034673;28;20021;-83
2022/08/17 11:37:24;;;;;;;7.28;3.70;;;23.90;83.40;;;;;;5017056;28;20488;-83
2022/08/17 11:40:05;;;;;;;7.95;3.80;;;23.90;83.40;;;;;;4993273;28;20053;-85
2022/08/17 11:42:49;;;;;;;6.28;3.40;;;23.90;83.30;;;;;;5016869;28;20030;-83
2022/08/17 11:45:50;;;;;;;7.10;3.63;;;23.90;83.20;;;;;;5036863;28;20026;-85
2022/08/17 11:51:59;;;;;;;5.82;3.78;;;23.90;83.20;;;;;;5039408;28;20027;-85
2022/08/17 11:54:42;;;;;;;6.90;3.78;;;23.90;83.30;;;;;;5020716;28;20021;-84
2022/08/17 11:57:26;;;;;;;6.45;3.53;;;23.90;84.00;;;;;;5020776;28;20072;-84
2022/08/17 12:00:00;;;;;;;5.38;3.35;;;23.80;83.50;;;;;;5038347;28;20030;-85
2022/08/17 12:02:26;;;;;;;7.70;3.50;;;23.80;83.60;;;;;;5039598;28;20027;-85
2022/08/17 12:05:15;;;;;;;5.32;3.40;;;23.80;83.50;;;;;;5022167;28;20033;-85
2022/08/17 12:07:46;;;;;;;5.85;3.75;;;23.80;83.60;;;;;;5020967;28;20025;-83
2022/08/17 12:10:16;;;;;;;6.30;3.70;;;23.80;83.70;;;;;;5020682;28;20033;-84
2022/08/17 12:12:43;;;;;;;5.82;3.40;;;23.80;83.70;;;;;;5019869;28;20029;-84
2022/08/17 12:15:17;;;;;;;4.88;3.40;;;23.80;83.80;;;;;;5037509;28;20025;-84
2022/08/17 12:17:52;;;;;;;7.00;4.10;;;23.80;83.90;;;;;;5019825;28;20534;-84
2022/08/17 12:20:32;;;;;;;5.72;3.83;;;23.80;83.80;;;;;;5036760;28;20017;-83
2022/08/17 12:23:19;;;;;;;6.20;3.60;;;23.80;83.70;;;;;;5036121;28;20013;-83
2022/08/17 12:25:58;;;;;;;5.25;3.40;;;23.80;83.70;;;;;;5034184;28;20025;-83
2022/08/17 12:28:31;;;;;;;5.63;3.58;;;23.80;83.50;;;;;;5016125;28;20095;-83
2022/08/17 12:31:01;;;;;;;6.03;3.85;;;23.90;83.50;;;;;;5016798;28;20052;-83
2022/08/17 12:33:27;;;;;;;4.68;3.03;;;23.80;83.40;;;;;;5019946;28;20056;-85
2022/08/17 12:36:01;;;;;;;5.40;3.72;;;23.90;83.40;;;;;;5037873;28;20017;-83
2022/08/17 12:38:29;;;;;;;5.63;3.60;;;23.80;83.40;;;;;;5019972;28;20017;-84
2022/08/17 12:40:57;;;;;;;5.38;3.60;;;23.80;83.60;;;;;;5037330;28;20480;-83
2022/08/17 12:43:29;;;;;;;6.70;3.42;;;23.80;83.60;;;;;;5020383;28;20035;-83
2022/08/17 12:45:59;;;;;;;4.93;3.55;;;23.80;83.80;;;;;;5037592;28;20052;-84
2022/08/17 12:48:27;;;;;;;5.40;3.40;;;23.70;83.70;;;;;;5019880;28;20029;-83
2022/08/17 12:50:59;;;;;;;6.53;3.70;;;23.70;83.80;;;;;;5036939;28;20384;-83
2022/08/17 12:53:28;;;;;;;6.47;3.90;;;23.80;83.90;;;;;;5037618;28;20010;-83
2022/08/17 12:55:56;;;;;;;5.13;3.63;;;23.70;83.90;;;;;;5019636;28;20623;-83
2022/08/17 12:58:30;;;;;;;4.60;3.13;;;23.70;83.90;;;;;;5037371;28;20464;-83
2022/08/17 13:01:12;;;;;;;5.70;3.70;;;23.70;84.00;;;;;;5041105;28;20433;-84
2022/08/17 13:03:48;;;;;;;6.10;3.47;;;23.70;84.00;;;;;;5041820;28;20025;-84
2022/08/17 13:06:32;;;;;;;5.63;3.45;;;23.70;84.00;;;;;;5024604;28;20025;-84
2022/08/17 13:09:10;;;;;;;5.70;3.65;;;23.80;84.10;;;;;;5024147;28;20021;-86
2022/08/17 13:11:44;;;;;;;5.43;3.65;;;23.70;83.90;;;;;;5023959;28;20438;-84
2022/08/17 13:14:10;;;;;;;4.72;3.35;;;23.80;83.90;;;;;;5023630;28;20017;-83
2022/08/17 13:16:36;;;;;;;5.25;3.58;;;23.80;83.90;;;;;;5040918;28;20056;-84
2022/08/17 13:19:20;;;;;;;5.10;3.40;;;23.80;83.80;;;;;;5022210;28;20036;-86
2022/08/17 13:21:51;;;;;;;5.65;3.33;;;23.80;83.80;;;;;;5022702;28;20427;-84
2022/08/17 13:24:26;;;;;;;6.15;3.75;;;23.70;83.80;;;;;;5039723;28;20032;-82
2022/08/17 13:27:07;;;;;;;4.60;3.40;;;23.70;83.90;;;;;;5039776;28;20033;-85
2022/08/17 13:29:50;;;;;;;4.57;3.17;;;23.70;84.00;;;;;;5021209;28;20025;-84
2022/08/17 13:32:39;;;;;;;4.88;3.30;;;23.70;84.10;;;;;;5021527;28;20036;-85
2022/08/17 13:35:25;;;;;;;5.72;3.53;;;23.70;84.10;;;;;;5019988;28;20096;-84
2022/08/17 13:38:04;;;;;;;6.75;3.60;;;23.70;84.20;;;;;;5018909;28;20072;-85
2022/08/17 13:40:36;;;;;;;5.65;3.13;;;23.70;84.30;;;;;;5018707;28;20491;-85
2022/08/17 13:43:02;;;;;;;4.95;3.50;;;23.70;84.30;;;;;;5017653;28;20022;-84
2022/08/17 13:45:28;;;;;;;5.43;3.67;;;23.70;84.30;;;;;;5036387;28;20376;-84
2022/08/17 13:48:22;;;;;;;5.53;3.67;;;23.70;84.30;;;;;;5018955;28;20025;-83
2022/08/17 13:51:09;;;;;;;6.30;3.88;;;23.70;84.20;;;;;;5018185;28;20056;-83